Oakdale, Massachusetts
Current Conditions -  °F | °C
As of 2:54 AM on Monday 22 Dec 2014 (Local Time) from KORH Reporting Station
Overcast Overcast  
Wind Chill: 23°   Ceiling: 800
Heat Index: 30°   Visibility: 10mi
Dew Point: 25°   Wind: 7mph
Humidity: 82%   Direction: 30°NNE
Pressure: 30.32"   Gusts: NA
Location:  42.37°N, 71.7814°W
Report Text: KORH 220754Z AUTO 03006KT 10SM OVC008 M01/M04 A3032 RMK AO2 SLP280 T10111039
Loading
Personal Weather Stations






























Interactive Weather Map New forecast layout! Learn more

10-Day Weather Forecast

Advertisements
Track Severe Weather on mobile